EST,Max TemperatureF,Mean TemperatureF,Min TemperatureF,Max Dew PointF,MeanDew PointF,Min DewpointF,Max Humidity, Mean Humidity, Min Humidity, Max Sea Level PressureIn, Mean Sea Level PressureIn, Min Sea Level PressureIn, Max VisibilityMiles, Mean VisibilityMiles, Min VisibilityMiles, Max Wind SpeedMPH, Mean Wind SpeedMPH, Max Gust SpeedMPH,PrecipitationIn, CloudCover, Events, WindDirDegrees
2013-11-1,79,74,69,72,69,65,93,84,76,30.01,29.87,29.77,,,,22,12,33,0.01,4,Rain,204
2013-11-2,75,68,59,71,64,56,97,89,76,29.88,29.75,29.69,,,,16,11,29,0.56,5,Rain,251
2013-11-3,64,59,55,54,44,39,72,57,45,30.34,30.12,29.88,,,,18,15,28,0.00,0,,352
2013-11-4,57,56,54,50,42,34,80,60,45,30.50,30.45,30.35,,,,22,17,31,0.00,2,,17
2013-11-5,69,63,57,58,55,51,87,76,68,30.46,30.43,30.40,,,,20,16,26,0.00,2,,30
2013-11-6,66,64,61,64,61,57,97,90,79,30.38,30.25,30.14,,,,15,11,21,0.15,7,Rain,32
2013-11-7,72,66,59,69,63,46,97,90,62,30.11,29.97,29.90,,,,17,7,25,0.18,6,Rain,272
2013-11-8,57,54,50,48,36,30,72,52,36,30.32,30.19,30.01,,,,21,15,29,0.00,2,,348
2013-11-9,57,54,51,49,41,32,83,61,47,30.39,30.31,30.21,,,,8,6,,0.00,0,,61
2013-11-10,71,60,50,50,45,39,83,62,33,30.22,30.16,30.08,,,,17,9,24,0.00,0,,243
2013-11-11,57,54,48,49,42,36,89,64,55,30.33,30.25,30.17,,,,17,11,25,0.00,0,,15
2013-11-12,66,52,39,48,39,29,93,68,40,30.34,30.16,30.04,,,,28,11,37,0.00,4,Rain,316
2013-11-13,45,41,37,33,25,21,86,54,39,30.50,30.42,30.32,,,,25,20,37,0.01,2,Snow,350
2013-11-14,55,47,39,37,28,20,74,53,28,30.52,30.44,30.38,,,,12,7,,0.00,0,,259
2013-11-15,57,48,44,45,41,34,90,76,64,30.40,30.38,30.36,,,,6,3,,0.00,0,,200
2013-11-16,,,,,,,,,,,,,,,,,,,,,,
2013-11-17,,,,,,,,,,,,,,,,,,,,,,
2013-11-18,79,70,60,70,62,43,93,75,50,29.90,29.85,29.78,,,,17,9,23,0.00,4,,310
2013-11-19,60,55,48,41,36,33,66,52,40,30.27,30.11,29.91,,,,20,15,28,0.00,0,,10
2013-11-20,60,54,48,49,44,39,80,71,62,30.40,30.34,30.25,,,,21,16,29,0.00,3,,16
2013-11-21,60,58,55,54,53,50,87,84,80,30.45,30.40,30.37,,,,13,10,18,0.00,8,,10
2013-11-22,73,63,53,61,58,52,97,81,61,30.35,30.24,30.11,,,,10,6,,0.00,3,,200
2013-11-23,66,60,52,63,53,37,97,81,57,30.09,30.06,30.03,,,,16,9,25,0.01,7,Rain,322
2013-11-24,50,42,34,32,18,10,58,42,32,30.53,30.35,30.09,,,,24,20,37,0.00,0,,345
2013-11-25,46,39,33,41,25,12,83,58,42,30.59,30.52,30.40,,,,16,11,23,0.00,0,,27
2013-11-26,72,58,46,70,57,42,100,88,70,30.36,30.02,29.64,,,,29,12,50,0.40,6,Rain,127
2013-11-27,72,56,39,70,53,29,100,89,67,30.12,29.67,29.42,,,,24,16,36,0.03,7,Rain,273
2013-11-28,43,38,34,32,25,22,73,59,43,30.51,30.39,30.15,,,,21,13,26,0.00,0,,350
2013-11-29,51,45,39,34,31,28,76,60,44,30.60,30.54,30.49,,,,20,9,24,0.00,2,,7
2013-11-30,55,48,42,46,41,35,90,78,64,30.58,30.48,30.33,,,,18,13,28,0.00,2,,8